createdAt,value
2023-04-03T00:00:57.847Z,100709.31
2023-04-03T00:03:24.496Z,100738.19
2023-04-03T00:05:51.276Z,100758.19
2023-04-03T00:08:17.860Z,100769.09
2023-04-03T00:10:44.374Z,100736.09
2023-04-03T00:13:11.394Z,100811.44
2023-04-03T00:15:39.043Z,100857.50
2023-04-03T00:18:06.385Z,100874.59
2023-04-03T00:20:33.934Z,100888.72
2023-04-03T00:23:01.411Z,100888.16
2023-04-03T00:25:27.964Z,100986.94
2023-04-03T00:27:55.047Z,100961.03
2023-04-03T00:30:22.722Z,101049.47
2023-04-03T00:32:50.776Z,101038.03
2023-04-03T00:35:18.915Z,101051.97
2023-04-03T00:37:46.015Z,101007.41
2023-04-03T00:40:14.553Z,101066.50
2023-04-03T00:42:42.394Z,101035.66
2023-04-03T00:45:11.877Z,101041.81
2023-04-03T00:47:40.270Z,100983.25
2023-04-03T00:50:07.486Z,100584.97
2023-04-03T00:52:34.047Z,100697.47
2023-04-03T00:55:04.808Z,100681.63
2023-04-03T00:57:32.878Z,100824.25
2023-04-03T01:00:06.084Z,100697.06
2023-04-03T01:02:32.989Z,100767.13
2023-04-03T01:04:59.653Z,100840.09
2023-04-03T01:07:31.028Z,100869.84
2023-04-03T01:10:01.544Z,100800.03
2023-04-03T01:12:31.959Z,100830.31
2023-04-03T01:15:07.675Z,100794.63
2023-04-03T01:17:40.489Z,100798.94
2023-04-03T01:20:18.919Z,100788.97
2023-04-03T01:23:07.214Z,100770.88
2023-04-03T01:25:34.940Z,100702.13
2023-04-03T01:28:01.644Z,100708.69
2023-04-03T01:30:35.876Z,100635.22
2023-04-03T01:33:03.312Z,100621.69
2023-04-03T01:35:30.156Z,100569.03
2023-04-03T01:37:56.863Z,100553.75
2023-04-03T01:40:23.543Z,100571.94
2023-04-03T01:42:50.086Z,100491.91
2023-04-03T01:45:16.685Z,100546.94
2023-04-03T01:47:43.564Z,100524.94
2023-04-03T01:50:10.538Z,100535.03
2023-04-03T01:52:37.027Z,100460.25
2023-04-03T01:55:03.861Z,100508.81
2023-04-03T01:57:30.726Z,100479.50
2023-04-03T01:59:57.504Z,100482.22
2023-04-03T02:02:24.149Z,100473.72
2023-04-03T02:04:50.740Z,100479.81
2023-04-03T02:07:17.241Z,100449.03
2023-04-03T02:09:43.860Z,100490.13
2023-04-03T02:12:10.530Z,100479.63
2023-04-03T02:14:37.020Z,100504.19
2023-04-03T02:17:03.844Z,100522.91
2023-04-03T02:19:30.561Z,100501.19
2023-04-03T02:21:57.206Z,100517.09
2023-04-03T02:24:23.906Z,100521.44
2023-04-03T02:26:50.624Z,100491.31
2023-04-03T02:29:17.364Z,100513.88
2023-04-03T02:31:43.936Z,100510.00
2023-04-03T02:34:10.881Z,100504.84
2023-04-03T02:36:37.596Z,100522.03
2023-04-03T02:39:04.660Z,100547.38
2023-04-03T02:41:31.193Z,100543.50
2023-04-03T02:43:57.926Z,100500.59
2023-04-03T02:46:24.623Z,100526.78
2023-04-03T02:48:51.214Z,100547.19
2023-04-03T02:51:17.841Z,100552.66
2023-04-03T02:53:44.681Z,100574.28
2023-04-03T02:56:11.940Z,100528.56
2023-04-03T02:58:38.650Z,100567.53
2023-04-03T03:01:05.413Z,100580.72
2023-04-03T03:03:32.228Z,100520.41
2023-04-03T03:06:14.051Z,100601.09
2023-04-03T03:08:41.689Z,100606.44
2023-04-03T03:11:08.861Z,100614.22
2023-04-03T03:13:35.764Z,100478.13
2023-04-03T03:16:02.793Z,100595.31
2023-04-03T03:18:29.941Z,100558.59
2023-04-03T03:20:59.510Z,100621.69
2023-04-03T03:23:28.497Z,100620.06
2023-04-03T03:26:00.628Z,100586.41
2023-04-03T03:28:27.264Z,100611.22
2023-04-03T03:30:54.156Z,100556.97
2023-04-03T03:33:20.862Z,100476.53
2023-04-03T03:35:47.593Z,100594.00
2023-04-03T03:38:14.347Z,100609.31
2023-04-03T03:40:41.208Z,100616.09
2023-04-03T03:43:08.044Z,100617.69
2023-04-03T03:45:34.894Z,100558.47
2023-04-03T03:48:02.797Z,100605.53
2023-04-03T03:50:29.678Z,100601.59
2023-04-03T03:52:56.102Z,100613.66
2023-04-03T03:55:22.968Z,100611.91
2023-04-03T03:57:49.600Z,100612.88
2023-04-03T04:00:16.565Z,100639.97
2023-04-03T04:02:44.236Z,100647.09
2023-04-03T04:05:11.814Z,100649.31
2023-04-03T04:07:38.712Z,100672.22
2023-04-03T04:10:05.834Z,100664.25
2023-04-03T04:12:32.395Z,100726.66
2023-04-03T04:14:58.915Z,100794.78
2023-04-03T04:17:25.605Z,100784.88
2023-04-03T04:19:52.416Z,100790.44
2023-04-03T04:22:19.144Z,100786.78
2023-04-03T04:24:45.709Z,100792.78
2023-04-03T04:27:12.430Z,100717.91
2023-04-03T04:29:39.233Z,100716.69
2023-04-03T04:32:06.019Z,100776.53
2023-04-03T04:34:32.602Z,100752.88
2023-04-03T04:36:59.406Z,100776.44
2023-04-03T04:39:25.902Z,100767.63
2023-04-03T04:41:52.548Z,100763.84
2023-04-03T04:44:19.181Z,100698.84
2023-04-03T04:46:45.759Z,100752.53
2023-04-03T04:49:12.719Z,100736.31
2023-04-03T04:51:51.059Z,100688.69
2023-04-03T04:54:19.172Z,100751.34
2023-04-03T04:56:45.888Z,100737.13
2023-04-03T04:59:12.747Z,100736.91
2023-04-03T05:01:39.531Z,100719.88
2023-04-03T05:04:06.142Z,100734.50
2023-04-03T05:06:32.783Z,100751.16
2023-04-03T05:09:01.139Z,100728.97
2023-04-03T05:11:27.974Z,100740.91
2023-04-03T05:13:54.746Z,100700.44
2023-04-03T05:16:21.450Z,100721.47
2023-04-03T05:18:48.180Z,100716.56
2023-04-03T05:21:14.993Z,100692.72
2023-04-03T05:23:41.864Z,100705.69
2023-04-03T05:26:08.430Z,100674.09
2023-04-03T05:28:36.420Z,100676.44
2023-04-03T05:31:03.385Z,100701.56
2023-04-03T05:33:30.061Z,100640.03
2023-04-03T05:35:56.957Z,100669.84
2023-04-03T05:38:23.779Z,100694.13
2023-04-03T05:40:50.693Z,100699.44
2023-04-03T05:43:17.166Z,100586.06
2023-04-03T05:45:46.713Z,100695.81
2023-04-03T05:48:13.794Z,100676.78
2023-04-03T05:50:40.721Z,100656.25
2023-04-03T05:53:07.363Z,100683.41
2023-04-03T05:55:33.941Z,100712.88
2023-04-03T05:58:00.753Z,100693.78
2023-04-03T06:00:27.414Z,100722.38
2023-04-03T06:02:54.328Z,100728.38
2023-04-03T06:05:20.909Z,100726.03
2023-04-03T06:07:47.909Z,100782.34
2023-04-03T06:10:14.865Z,100800.00
2023-04-03T06:12:44.666Z,100863.59
2023-04-03T06:15:13.517Z,100873.59
2023-04-03T06:17:43.127Z,100911.19
2023-04-03T06:20:11.299Z,100964.28
2023-04-03T06:22:40.159Z,101058.22
2023-04-03T06:25:07.146Z,101136.38
2023-04-03T06:27:33.697Z,101185.78
2023-04-03T06:30:00.242Z,101202.97
2023-04-03T06:32:26.888Z,101250.59
2023-04-03T06:34:53.864Z,101310.75
2023-04-03T06:37:24.646Z,101353.63
2023-04-03T06:39:51.325Z,101371.03
2023-04-03T06:42:18.269Z,101409.16
2023-04-03T06:44:45.071Z,101390.50
2023-04-03T06:47:16.036Z,101476.84
2023-04-03T06:49:43.578Z,101510.97
2023-04-03T06:52:11.027Z,101636.06
2023-04-03T06:54:37.799Z,101717.50
2023-04-03T06:57:05.294Z,101744.13
2023-04-03T06:59:32.063Z,101835.75
2023-04-03T07:01:58.827Z,101871.88
2023-04-03T07:04:25.417Z,101894.38
2023-04-03T07:06:52.081Z,101970.06
2023-04-03T07:09:21.784Z,102061.88
2023-04-03T07:11:48.296Z,102071.28
2023-04-03T07:14:18.862Z,102129.06
2023-04-03T07:16:46.791Z,102134.25
2023-04-03T07:19:13.665Z,102177.59
2023-04-03T07:21:40.417Z,102224.91
2023-04-03T07:24:08.870Z,102286.59
2023-04-03T07:26:38.260Z,102268.31
2023-04-03T07:29:05.027Z,102317.69
2023-04-03T07:31:31.695Z,102377.09
2023-04-03T07:33:59.846Z,102363.44
2023-04-03T07:36:26.726Z,102473.91
2023-04-03T07:38:54.494Z,102472.75
2023-04-03T07:41:22.227Z,102443.34
2023-04-03T07:43:49.371Z,102421.59
2023-04-03T07:46:16.361Z,102471.31
2023-04-03T07:48:42.983Z,102509.56
2023-04-03T07:51:12.252Z,102602.09
2023-04-03T07:53:39.100Z,102628.72
2023-04-03T07:56:05.929Z,102630.81
2023-04-03T07:58:32.457Z,102747.22
2023-04-03T08:00:59.056Z,102806.03
2023-04-03T09:06:34.199Z,103249.31
2023-04-03T09:09:06.962Z,103228.38
2023-04-03T09:12:07.069Z,103256.19
2023-04-03T09:14:40.306Z,103246.31
2023-04-03T09:17:25.688Z,103279.59
2023-04-03T09:20:20.719Z,103280.53
2023-04-03T09:22:52.176Z,103256.81
2023-04-03T09:27:02.983Z,103325.69
2023-04-03T09:29:29.822Z,103340.78
2023-04-03T09:32:10.991Z,103319.38
2023-04-03T09:34:38.373Z,103333.81
2023-04-03T09:37:05.764Z,103277.56
2023-04-03T09:39:34.193Z,103329.88
2023-04-03T09:42:03.118Z,103338.22
2023-04-03T09:44:34.133Z,103334.16
2023-04-03T09:47:01.021Z,103354.72
2023-04-03T09:49:27.836Z,103340.16
2023-04-03T09:51:54.339Z,103356.28
2023-04-03T09:54:34.829Z,103301.41
2023-04-03T09:57:07.521Z,103343.09
2023-04-03T09:59:34.813Z,103341.03
2023-04-03T10:02:05.257Z,103317.38
2023-04-03T10:04:42.778Z,103370.22
2023-04-03T10:07:36.001Z,103313.00
2023-04-03T10:10:20.281Z,103367.88
2023-04-03T10:12:47.317Z,103310.44
2023-04-03T10:15:15.929Z,103339.09
2023-04-03T10:18:24.063Z,103385.16
2023-04-03T10:20:53.839Z,103354.97
2023-04-03T10:23:33.099Z,103361.97
2023-04-03T10:26:08.516Z,103343.34
2023-04-03T10:29:03.334Z,103340.63
2023-04-03T10:31:38.144Z,103351.59
2023-04-03T10:34:30.988Z,103342.91
2023-04-03T10:37:20.061Z,103306.28
2023-04-03T10:39:49.343Z,103325.63
2023-04-03T10:42:29.765Z,103361.63
2023-04-03T10:45:24.059Z,103353.28
2023-04-03T10:48:09.261Z,103349.28
2023-04-03T10:51:08.051Z,103339.63
2023-04-03T10:53:50.649Z,103334.72
2023-04-03T10:56:21.253Z,103239.91
2023-04-03T10:58:57.188Z,103131.50
2023-04-03T11:01:31.342Z,103093.13
2023-04-03T11:04:00.393Z,103092.28
2023-04-03T11:06:38.656Z,103087.06
2023-04-03T11:09:23.950Z,103085.28
2023-04-03T11:11:54.173Z,103066.63
2023-04-03T11:14:36.520Z,103105.84
2023-04-03T11:17:07.057Z,103174.41
2023-04-03T11:19:48.816Z,103250.25
2023-04-03T11:22:36.091Z,103289.50
2023-04-03T11:25:11.658Z,103395.78
2023-04-03T11:28:03.053Z,103562.16
2023-04-03T11:30:33.330Z,103492.75
2023-04-03T11:33:23.039Z,103517.75
2023-04-03T11:35:54.423Z,103434.94
2023-04-03T11:38:35.932Z,103551.09
2023-04-03T11:41:06.417Z,103563.81
2023-04-03T11:43:35.066Z,103430.19
2023-04-03T11:46:09.914Z,103010.03
2023-04-03T11:48:36.508Z,102886.16
2023-04-03T11:51:29.014Z,102651.59
2023-04-03T11:54:15.661Z,102553.16
2023-04-03T11:56:42.199Z,102641.28
2023-04-03T11:59:11.709Z,103267.53
2023-04-03T12:01:59.075Z,103457.97
2023-04-03T12:04:28.000Z,103590.59
2023-04-03T12:07:12.869Z,103570.00
2023-04-03T12:09:42.378Z,104087.72
2023-04-03T12:12:30.771Z,103785.19
2023-04-03T12:15:19.297Z,103702.00
2023-04-03T12:17:46.033Z,103896.69
2023-04-03T12:20:51.414Z,103690.50
2023-04-03T12:23:29.251Z,103824.44
2023-04-03T12:26:04.247Z,103792.78
2023-04-03T12:28:36.869Z,103912.94
2023-04-03T12:31:05.936Z,103928.81
2023-04-03T12:33:48.866Z,103799.47
2023-04-03T12:36:41.123Z,103772.00
2023-04-03T12:39:35.158Z,103732.41
2023-04-03T12:42:14.120Z,103825.16
2023-04-03T12:44:57.807Z,104054.97
2023-04-03T12:47:29.750Z,103867.41
2023-04-03T12:49:58.363Z,103873.56
2023-04-03T12:52:48.730Z,103924.19
2023-04-03T12:55:20.437Z,103874.53
2023-04-03T12:57:47.595Z,103743.63
2023-04-03T13:00:40.403Z,103900.09
2023-04-03T13:03:20.413Z,103920.59
2023-04-03T13:05:47.216Z,103914.47
2023-04-03T13:08:15.447Z,103951.47
2023-04-03T13:10:55.414Z,103843.00
2023-04-03T13:13:22.236Z,103642.66
2023-04-03T13:15:50.019Z,103777.47
2023-04-03T13:18:32.513Z,103713.34
2023-04-03T13:21:17.941Z,103883.19
2023-04-03T13:23:50.167Z,103731.44
2023-04-03T13:26:21.021Z,103787.03
2023-04-03T13:28:49.479Z,103700.13
2023-04-03T13:31:25.985Z,103729.13
2023-04-03T13:34:14.956Z,103755.69
2023-04-03T13:36:46.327Z,103825.16
2023-04-03T13:39:15.935Z,103772.69
2023-04-03T13:41:44.996Z,103543.31
2023-04-03T13:44:17.372Z,103792.94
2023-04-03T13:46:44.412Z,103563.06
2023-04-03T13:49:32.521Z,103904.22
2023-04-03T13:52:07.244Z,103920.22
2023-04-03T13:54:38.540Z,103851.19
2023-04-03T13:57:14.079Z,103685.03
2023-04-03T13:59:40.935Z,103867.31
2023-04-03T14:02:34.755Z,103554.56
2023-04-03T14:05:03.523Z,103668.47
2023-04-03T14:07:31.152Z,103963.31
2023-04-03T14:09:59.018Z,103837.69
2023-04-03T14:12:37.890Z,103733.63
2023-04-03T14:15:12.565Z,103428.28
2023-04-03T14:17:39.520Z,103642.09
2023-04-03T14:20:07.062Z,103980.88
2023-04-03T14:22:34.046Z,103802.44
2023-04-03T14:25:01.097Z,103951.13
2023-04-03T14:27:40.850Z,103576.13
2023-04-03T14:30:14.117Z,103675.38
2023-04-03T14:32:40.916Z,103734.84
2023-04-03T14:35:07.858Z,103699.31
2023-04-03T14:37:34.506Z,103893.63
2023-04-03T14:40:02.076Z,103963.13
2023-04-03T14:42:35.250Z,103800.75
2023-04-03T14:45:04.044Z,103564.72
2023-04-03T14:47:32.377Z,103668.78
2023-04-03T14:50:06.212Z,103846.19
2023-04-03T14:52:35.991Z,103788.31
2023-04-03T14:55:05.171Z,103724.78
2023-04-03T14:57:32.726Z,103671.16
2023-04-03T15:00:00.778Z,103648.84
2023-04-03T15:02:39.339Z,103815.94
2023-04-03T15:05:08.924Z,103640.16
2023-04-03T15:07:39.076Z,103728.00
2023-04-03T15:10:20.582Z,103770.72
2023-04-03T15:12:48.338Z,103789.56
2023-04-03T15:15:18.594Z,103969.78
2023-04-03T15:17:46.112Z,103935.78
2023-04-03T15:20:19.788Z,103696.56
2023-04-03T15:22:46.882Z,103693.16
2023-04-03T15:25:13.713Z,103835.41
2023-04-03T15:27:41.400Z,103874.47
2023-04-03T15:30:12.274Z,103829.66
2023-04-03T15:32:38.984Z,103985.50
2023-04-03T15:35:06.470Z,103834.75
2023-04-03T15:37:33.613Z,103836.91
2023-04-03T15:40:00.281Z,103770.41
2023-04-03T15:42:27.132Z,103879.66
2023-04-03T15:44:54.479Z,103819.25
2023-04-03T15:47:21.349Z,103595.53
2023-04-03T15:49:48.288Z,103718.28
2023-04-03T15:52:15.340Z,103800.09
2023-04-03T15:54:42.134Z,103806.28
2023-04-03T15:57:09.027Z,103863.63
2023-04-03T15:59:35.592Z,103814.09
2023-04-03T16:02:05.181Z,103866.44
2023-04-03T16:04:32.087Z,103805.78
2023-04-03T16:07:01.602Z,103795.03
2023-04-03T16:09:29.203Z,103858.31
2023-04-03T16:11:55.895Z,103754.88
2023-04-03T16:14:22.597Z,103704.28
2023-04-03T16:16:49.473Z,103786.00
2023-04-03T16:19:15.998Z,103841.38
2023-04-03T16:21:42.552Z,103768.56
2023-04-03T16:24:09.972Z,103712.31
2023-04-03T16:26:36.949Z,103819.78
2023-04-03T16:29:04.001Z,103761.88
2023-04-03T16:31:34.317Z,103687.88
2023-04-03T16:34:02.100Z,103737.47
2023-04-03T16:36:29.670Z,103658.34
2023-04-03T16:38:56.427Z,103605.31
2023-04-03T16:41:23.243Z,103737.50
2023-04-03T16:43:49.794Z,103694.72
2023-04-03T16:46:16.621Z,103731.94
2023-04-03T16:48:43.310Z,103775.69
2023-04-03T16:51:10.037Z,103640.38
2023-04-03T16:53:36.463Z,103659.81
2023-04-03T16:56:03.258Z,103679.00
2023-04-03T16:58:30.152Z,103622.09
2023-04-03T17:00:56.920Z,103552.97
2023-04-03T17:03:23.752Z,103614.03
2023-04-03T17:05:50.429Z,103558.41
2023-04-03T17:08:18.520Z,103531.72
2023-04-03T17:10:45.250Z,103602.03
2023-04-03T17:13:12.504Z,103613.63
2023-04-03T17:15:39.386Z,103716.34
2023-04-03T17:18:06.306Z,103638.41
2023-04-03T17:20:33.153Z,103696.13
2023-04-03T17:23:00.338Z,103714.97
2023-04-03T17:25:27.849Z,103636.97
2023-04-03T17:27:54.702Z,103644.03
2023-04-03T17:30:21.531Z,103592.25
2023-04-03T17:32:48.560Z,103592.09
2023-04-03T17:35:15.575Z,103551.81
2023-04-03T17:37:42.074Z,103457.56
2023-04-03T17:40:09.310Z,103427.56
2023-04-03T17:42:35.946Z,103325.50
2023-04-03T17:45:02.843Z,103257.31
2023-04-03T17:47:29.781Z,103113.22
2023-04-03T17:49:56.407Z,102868.16
2023-04-03T17:52:23.006Z,102738.53
2023-04-03T17:54:50.345Z,102724.25
2023-04-03T17:57:16.798Z,102647.81
2023-04-03T17:59:43.426Z,102619.50
2023-04-03T18:02:09.987Z,102522.44
2023-04-03T18:04:36.596Z,102437.00
2023-04-03T18:07:04.021Z,102406.81
2023-04-03T18:09:33.703Z,102460.94
2023-04-03T18:12:05.569Z,102609.63
2023-04-03T18:14:33.811Z,102668.97
2023-04-03T18:17:00.645Z,102783.47
2023-04-03T18:19:29.177Z,102924.25
2023-04-03T18:22:00.558Z,103050.84
2023-04-03T18:24:28.152Z,103030.41
2023-04-03T18:27:00.305Z,103070.91
2023-04-03T18:29:30.021Z,103129.84
2023-04-03T18:31:57.422Z,103113.41
2023-04-03T18:34:24.032Z,103067.06
2023-04-03T18:36:50.678Z,103012.03
2023-04-03T18:39:17.363Z,103050.06
2023-04-03T18:41:44.830Z,103062.34
2023-04-03T18:44:15.739Z,103064.41
2023-04-03T18:46:42.396Z,103053.06
2023-04-03T18:49:10.345Z,103064.13
2023-04-03T18:51:37.248Z,103064.28
2023-04-03T18:54:05.290Z,103072.75
2023-04-03T18:56:32.595Z,103110.63
2023-04-03T18:58:59.706Z,103133.38
2023-04-03T19:01:26.388Z,103158.75
2023-04-03T19:03:53.274Z,103182.16
2023-04-03T19:06:20.274Z,103139.44
2023-04-03T19:08:48.619Z,103105.69
2023-04-03T19:11:15.683Z,103187.50
2023-04-03T19:13:47.120Z,103176.97
2023-04-03T19:16:29.366Z,103161.03
2023-04-03T19:18:55.902Z,103162.38
2023-04-03T19:21:22.489Z,103172.03
2023-04-03T19:23:49.209Z,103170.72
2023-04-03T19:26:16.330Z,103091.22
2023-04-03T19:28:42.946Z,103100.28
2023-04-03T19:31:18.044Z,103118.59
2023-04-03T19:33:45.352Z,103121.84
2023-04-03T19:36:12.392Z,103139.88
2023-04-03T19:38:39.565Z,103061.63
2023-04-03T19:41:08.754Z,103137.84
2023-04-03T19:43:35.670Z,103145.28
2023-04-03T19:46:02.403Z,103149.13
2023-04-03T19:48:29.185Z,103156.50
2023-04-03T19:50:55.734Z,103164.06
2023-04-03T19:53:22.288Z,103164.84
2023-04-03T19:55:49.154Z,103143.59
2023-04-03T19:58:15.816Z,103161.78
2023-04-03T20:00:42.533Z,103171.09
2023-04-03T20:03:09.657Z,103184.25
2023-04-03T20:05:36.475Z,103183.59
2023-04-03T20:08:03.024Z,103187.63
2023-04-03T20:10:29.713Z,103174.16
2023-04-03T20:12:56.300Z,103198.69
2023-04-03T20:15:23.044Z,103189.94
2023-04-03T20:17:49.863Z,103172.78
2023-04-03T20:20:16.969Z,103178.47
2023-04-03T20:22:43.528Z,103181.72
2023-04-03T20:25:12.333Z,103118.13
2023-04-03T20:27:40.447Z,103187.88
2023-04-03T20:30:11.256Z,103132.03
2023-04-03T20:32:37.874Z,103156.91
2023-04-03T20:35:05.022Z,103140.06
2023-04-03T20:37:32.552Z,103149.63
2023-04-03T20:39:59.693Z,103206.38
2023-04-03T20:42:26.379Z,103221.34
2023-04-03T20:44:53.090Z,103178.88
2023-04-03T20:47:19.801Z,103248.22
2023-04-03T20:49:46.588Z,103244.91
2023-04-03T20:52:13.231Z,103249.88
2023-04-03T20:54:39.813Z,103203.13
2023-04-03T20:57:06.471Z,103264.97
2023-04-03T20:59:33.156Z,103258.16
2023-04-03T21:02:00.454Z,103266.84
2023-04-03T21:04:39.573Z,103216.03
2023-04-03T21:07:43.753Z,103272.47
2023-04-03T21:10:47.611Z,103277.09
2023-04-03T21:13:51.783Z,103278.25
2023-04-03T21:16:18.144Z,103267.28
2023-04-03T21:19:02.604Z,103284.44
2023-04-03T21:21:29.862Z,103280.81
2023-04-03T21:23:56.598Z,103264.66
2023-04-03T21:26:26.560Z,103256.00
2023-04-03T21:28:54.339Z,103277.28
2023-04-03T21:31:23.220Z,103286.41
2023-04-03T21:33:51.284Z,103284.22
2023-04-03T21:36:17.840Z,103287.09
2023-04-03T21:38:44.540Z,103255.81
2023-04-03T21:41:11.275Z,103312.25
2023-04-03T21:43:37.820Z,103315.81
2023-04-03T21:46:04.443Z,103317.69
2023-04-03T21:48:32.071Z,103313.97
2023-04-03T21:51:03.479Z,103319.06
2023-04-03T21:53:31.384Z,103313.59
2023-04-03T21:55:58.641Z,103323.31
2023-04-03T21:58:30.968Z,103327.84
2023-04-03T22:00:58.630Z,103258.75
2023-04-03T22:03:25.572Z,103344.81
2023-04-03T22:05:52.297Z,103326.31
2023-04-03T22:08:19.203Z,103345.84
2023-04-03T22:10:45.845Z,103353.78
2023-04-03T22:13:12.938Z,103363.84
2023-04-03T22:15:39.572Z,103355.09
2023-04-03T22:18:06.313Z,103337.97
2023-04-03T22:20:32.782Z,103360.44
2023-04-03T22:22:59.954Z,103362.22
2023-04-03T22:25:26.431Z,103370.34
2023-04-03T22:27:54.185Z,103347.06
2023-04-03T22:30:20.759Z,103384.09
2023-04-03T22:32:47.368Z,103385.84
2023-04-03T22:35:13.972Z,103373.22
2023-04-03T22:37:40.556Z,103394.44
2023-04-03T22:40:07.768Z,103392.69
2023-04-03T22:42:34.483Z,103390.78
2023-04-03T22:45:01.132Z,103362.00
2023-04-03T22:47:27.649Z,103379.13
2023-04-03T22:49:54.220Z,103374.91
2023-04-03T22:52:21.054Z,103365.78
2023-04-03T22:54:47.782Z,103356.19
2023-04-03T22:57:14.617Z,103271.59
2023-04-03T22:59:41.085Z,103353.31
2023-04-03T23:02:07.656Z,103354.41
2023-04-03T23:04:34.323Z,103350.94
2023-04-03T23:07:01.292Z,103353.66
2023-04-03T23:09:27.778Z,103347.50
2023-04-03T23:11:54.509Z,103334.69
2023-04-03T23:14:21.395Z,103313.78
2023-04-03T23:16:47.985Z,103282.44
2023-04-03T23:19:14.530Z,103273.38
2023-04-03T23:21:41.124Z,103262.44
2023-04-03T23:24:07.660Z,103271.53
2023-04-03T23:26:34.403Z,103237.38
2023-04-03T23:29:01.114Z,103236.72
2023-04-03T23:31:27.802Z,103194.50
2023-04-03T23:33:54.645Z,103266.09
2023-04-03T23:36:21.251Z,103250.94
2023-04-03T23:38:47.701Z,103266.34
2023-04-03T23:41:14.495Z,103218.03
2023-04-03T23:43:40.906Z,103266.53
2023-04-03T23:46:07.718Z,103262.72
2023-04-03T23:48:34.538Z,103263.06
2023-04-03T23:51:02.055Z,103267.00
2023-04-03T23:53:28.942Z,103267.91
2023-04-03T23:55:55.489Z,103260.75
2023-04-03T23:58:22.401Z,103200.75
